Time;durP1;ratioP1;P1;durP2;ratioP2;P2;SDS_P1;SDS_P2;PMS_P1;PMS_P2;Temp;Humidity;BMP_temperature;BMP_pressure;BME280_temperature;BME280_humidity;BME280_pressure;Samples;Min_cycle;Max_cycle;Signal;HPM_P1;HPM_P2
2022/03/23 00:01:26;;;;;;;969.35;73.88;;;;;;;;;;4899152;29;20080;-84
2022/03/23 00:03:53;;;;;;;501.77;55.92;;;;;;;;;;4915427;29;20112;-84
2022/03/23 00:06:20;;;;;;;;;;;;;;;;;;4901126;29;20500;-83
2022/03/23 00:08:53;;;;;;;989.35;70.43;;;;;;;;;;4914428;29;20295;-83
2022/03/23 00:11:20;;;;;;;889.45;65.22;;;;;;;;;;4915503;29;20580;-84
2022/03/23 00:13:46;;;;;;;892.65;72.00;;;;;;;;;;4916386;29;20409;-83
2022/03/23 00:16:20;;;;;;;827.85;68.95;;;;;;;;;;4914647;29;20154;-83
2022/03/23 00:18:46;;;;;;;763.95;69.20;;;;;;;;;;4890711;29;20052;-83
2022/03/23 00:21:13;;;;;;;1024.75;78.15;;;;;;;;;;4915118;29;20127;-83
2022/03/23 00:23:41;;;;;;;1190.53;83.60;;;;;;;;;;4898485;29;20055;-84
2022/03/23 00:26:08;;;;;;;466.75;59.05;;;;;;;;;;4914074;29;20136;-83
2022/03/23 00:28:37;;;;;;;899.45;74.13;;;;;;;;;;4891721;29;20083;-83
2022/03/23 00:31:04;;;;;;;734.50;71.82;;;;;;;;;;4899738;29;20076;-84
2022/03/23 00:33:35;;;;;;;665.92;68.22;;;;;;;;;;4914061;29;20083;-84
2022/03/23 00:36:02;;;;;;;969.00;77.20;;;;;;;;;;4897066;29;20537;-84
2022/03/23 00:38:29;;;;;;;719.55;60.17;;;;;;;;;;4898553;29;20147;-83
2022/03/23 00:40:56;;;;;;;982.25;80.47;;;;;;;;;;4914688;29;20528;-84
2022/03/23 00:43:23;;;;;;;1054.60;79.93;;;;;;;;;;4897745;29;20154;-83
2022/03/23 00:45:50;;;;;;;661.78;64.50;;;;;;;;;;4895062;29;20076;-84
2022/03/23 00:48:16;;;;;;;769.72;72.85;;;;;;;;;;4894382;29;20067;-83
2022/03/23 00:50:45;;;;;;;802.10;73.28;;;;;;;;;;4899648;29;20052;-84
2022/03/23 00:53:11;;;;;;;873.83;74.45;;;;;;;;;;4898898;29;20590;-84
2022/03/23 00:55:39;;;;;;;890.78;73.10;;;;;;;;;;4900193;29;20610;-83
2022/03/23 00:58:13;;;;;;;846.17;69.80;;;;;;;;;;4898556;29;20142;-84
2022/03/23 01:00:41;;;;;;;739.83;65.07;;;;;;;;;;4914640;29;20080;-85
2022/03/23 01:03:07;;;;;;;887.30;70.03;;;;;;;;;;4898150;29;20048;-84
2022/03/23 01:05:41;;;;;;;636.78;62.22;;;;;;;;;;4897365;29;20426;-84
2022/03/23 01:08:08;;;;;;;611.85;64.20;;;;;;;;;;4892489;29;20640;-83
2022/03/23 01:10:34;;;;;;;819.45;69.13;;;;;;;;;;4893315;29;20123;-84
2022/03/23 01:13:01;;;;;;;534.25;55.47;;;;;;;;;;4915280;29;20100;-83
2022/03/23 01:15:29;;;;;;;776.83;64.73;;;;;;;;;;4911522;29;20062;-83
2022/03/23 01:17:56;;;;;;;701.90;62.78;;;;;;;;;;4899718;29;20060;-84
2022/03/23 01:20:23;;;;;;;714.97;62.90;;;;;;;;;;4904253;29;20096;-84
2022/03/23 01:22:50;;;;;;;670.45;60.63;;;;;;;;;;4899312;29;20147;-84
2022/03/23 01:25:16;;;;;;;730.55;61.70;;;;;;;;;;4892824;29;20078;-82
2022/03/23 01:27:50;;;;;;;819.80;64.68;;;;;;;;;;4914634;29;20481;-83
2022/03/23 01:30:17;;;;;;;926.75;78.63;;;;;;;;;;4897591;29;20088;-83
2022/03/23 01:32:44;;;;;;;228.38;43.60;;;;;;;;;;4896836;29;20064;-83
2022/03/23 01:35:11;;;;;;;;;;;;;;;;;;4891885;29;20075;-84
2022/03/23 01:37:38;;;;;;;608.92;56.00;;;;;;;;;;4913442;29;20403;-83
2022/03/23 01:40:06;;;;;;;731.13;67.27;;;;;;;;;;4897660;29;20088;-83
2022/03/23 01:42:39;;;;;;;722.33;63.00;;;;;;;;;;4914457;29;20626;-84
2022/03/23 01:45:06;;;;;;;903.67;71.38;;;;;;;;;;4903292;29;20052;-83
2022/03/23 01:47:33;;;;;;;468.27;46.65;;;;;;;;;;4912535;29;20119;-83
2022/03/23 01:50:06;;;;;;;750.55;68.50;;;;;;;;;;4896919;29;20104;-84
2022/03/23 01:52:33;;;;;;;509.60;60.28;;;;;;;;;;4902205;29;20131;-84
2022/03/23 01:55:01;;;;;;;610.47;63.65;;;;;;;;;;4897234;29;20135;-83
2022/03/23 01:57:28;;;;;;;561.33;59.30;;;;;;;;;;4896849;29;20084;-83
2022/03/23 01:59:54;;;;;;;545.13;57.33;;;;;;;;;;4912198;29;20225;-84
2022/03/23 02:02:21;;;;;;;630.13;61.38;;;;;;;;;;4891449;29;20380;-84
2022/03/23 02:04:54;;;;;;;650.40;61.63;;;;;;;;;;4893934;29;20057;-83
2022/03/23 02:07:22;;;;;;;786.17;67.78;;;;;;;;;;4896276;29;20087;-83
2022/03/23 02:09:49;;;;;;;610.80;54.30;;;;;;;;;;4909916;29;20439;-83
2022/03/23 02:12:16;;;;;;;564.85;57.35;;;;;;;;;;4896809;29;20127;-83
2022/03/23 02:14:42;;;;;;;706.97;59.50;;;;;;;;;;4895256;29;20588;-83
2022/03/23 02:17:11;;;;;;;572.13;53.25;;;;;;;;;;4913071;29;20044;-83
2022/03/23 02:19:38;;;;;;;641.08;53.03;;;;;;;;;;4902333;29;20130;-83
2022/03/23 02:22:05;;;;;;;561.90;53.17;;;;;;;;;;4896671;29;20147;-83
2022/03/23 02:24:32;;;;;;;758.50;61.92;;;;;;;;;;4896814;29;20056;-84
2022/03/23 02:27:06;;;;;;;713.33;59.47;;;;;;;;;;4900722;29;20048;-83
2022/03/23 02:29:32;;;;;;;671.55;56.78;;;;;;;;;;4891045;29;20080;-84
2022/03/23 02:32:01;;;;;;;741.50;60.92;;;;;;;;;;4896309;29;20568;-84
2022/03/23 02:34:28;;;;;;;636.90;54.08;;;;;;;;;;4891744;29;20059;-83
2022/03/23 02:36:55;;;;;;;550.75;42.55;;;;;;;;;;4899608;29;20060;-83
2022/03/23 02:39:22;;;;;;;888.00;70.78;;;;;;;;;;4913317;29;20147;-84
2022/03/23 02:41:49;;;;;;;805.17;63.00;;;;;;;;;;4896890;29;20508;-84
2022/03/23 02:44:16;;;;;;;677.70;59.53;;;;;;;;;;4898840;29;20084;-83
2022/03/23 02:46:43;;;;;;;519.40;51.55;;;;;;;;;;4889730;29;20321;-83
2022/03/23 02:49:09;;;;;;;491.88;52.13;;;;;;;;;;4898594;29;20151;-83
2022/03/23 02:51:37;;;;;;;594.83;53.60;;;;;;;;;;4889575;29;20134;-83
2022/03/23 03:02:47;;;;;;;741.05;58.33;;;;;;;;;;4915910;29;20460;-84
2022/03/23 03:05:14;;;;;;;609.47;56.72;;;;;;;;;;4899766;29;20501;-83
2022/03/23 03:10:26;;;;;;;844.40;64.93;;;;;;;;;;4916349;29;20090;-83
2022/03/23 03:12:53;;;;;;;673.97;53.92;;;;;;;;;;4916830;29;20548;-84
2022/03/23 03:15:20;;;;;;;585.65;55.15;;;;;;;;;;4895062;29;20078;-82
2022/03/23 03:17:57;;;;;;;430.38;46.40;;;;;;;;;;4914505;29;20473;-83
2022/03/23 03:20:24;;;;;;;667.50;53.38;;;;;;;;;;4915049;29;20132;-83
2022/03/23 03:22:52;;;;;;;476.52;45.85;;;;;;;;;;4903775;29;20087;-83
2022/03/23 03:25:21;;;;;;;609.53;51.05;;;;;;;;;;4896409;29;20048;-84
2022/03/23 03:27:48;;;;;;;536.40;48.85;;;;;;;;;;4901184;29;20151;-84
2022/03/23 03:30:15;;;;;;;418.35;44.80;;;;;;;;;;4913536;29;20140;-83
2022/03/23 03:32:42;;;;;;;;;;;;;;;;;;4917551;29;20080;-84
2022/03/23 03:35:11;;;;;;;509.50;44.30;;;;;;;;;;4896461;29;20396;-84
2022/03/23 03:37:39;;;;;;;559.25;50.83;;;;;;;;;;4914975;29;20083;-83
2022/03/23 03:40:06;;;;;;;698.25;52.28;;;;;;;;;;4912723;29;20110;-83
2022/03/23 03:42:34;;;;;;;368.42;39.45;;;;;;;;;;4915432;29;20567;-83
2022/03/23 03:45:02;;;;;;;366.90;43.95;;;;;;;;;;4914323;29;20051;-83
2022/03/23 03:47:28;;;;;;;622.33;50.47;;;;;;;;;;4897922;29;20083;-83
2022/03/23 03:49:55;;;;;;;402.77;41.53;;;;;;;;;;4899419;29;20464;-84
2022/03/23 03:52:21;;;;;;;465.45;45.67;;;;;;;;;;4913363;29;20075;-84
2022/03/23 03:54:48;;;;;;;454.42;37.75;;;;;;;;;;4914489;29;20780;-84
2022/03/23 03:57:15;;;;;;;695.60;53.85;;;;;;;;;;4898880;29;20076;-83
2022/03/23 03:59:41;;;;;;;561.10;48.10;;;;;;;;;;4897956;29;20551;-84
2022/03/23 04:02:08;;;;;;;580.25;48.97;;;;;;;;;;4915400;29;20086;-83
2022/03/23 04:04:34;;;;;;;596.30;45.88;;;;;;;;;;4892874;29;20063;-83
2022/03/23 04:07:02;;;;;;;822.70;62.55;;;;;;;;;;4895265;29;20529;-84
2022/03/23 04:09:28;;;;;;;259.40;37.25;;;;;;;;;;4898482;29;20086;-84
2022/03/23 04:11:55;;;;;;;541.55;47.03;;;;;;;;;;4915246;29;20142;-83
2022/03/23 04:14:21;;;;;;;688.28;54.60;;;;;;;;;;4913667;29;20094;-83
2022/03/23 04:16:48;;;;;;;796.40;58.35;;;;;;;;;;4914077;29;20139;-83
2022/03/23 04:19:21;;;;;;;537.58;48.30;;;;;;;;;;4899574;29;20104;-84
2022/03/23 04:21:47;;;;;;;553.88;48.50;;;;;;;;;;4892812;29;20048;-84
2022/03/23 04:24:14;;;;;;;527.35;46.60;;;;;;;;;;4895335;29;20087;-83
2022/03/23 04:26:47;;;;;;;534.80;48.80;;;;;;;;;;4914150;29;20552;-82
2022/03/23 04:29:14;;;;;;;561.75;46.67;;;;;;;;;;4898467;29;20056;-83
2022/03/23 04:31:40;;;;;;;390.05;44.65;;;;;;;;;;4912829;28;20063;-84
2022/03/23 04:34:07;;;;;;;390.23;40.67;;;;;;;;;;4915374;29;20056;-84
2022/03/23 04:36:33;;;;;;;331.92;40.28;;;;;;;;;;4894452;29;20312;-83
2022/03/23 04:39:00;;;;;;;537.05;45.70;;;;;;;;;;4898121;29;20076;-83
2022/03/23 04:41:26;;;;;;;618.45;50.80;;;;;;;;;;4893882;29;20146;-83
2022/03/23 04:43:53;;;;;;;455.95;42.00;;;;;;;;;;4899643;29;20083;-84
2022/03/23 04:46:19;;;;;;;764.65;54.90;;;;;;;;;;4915637;29;20576;-83
2022/03/23 04:48:53;;;;;;;539.58;41.88;;;;;;;;;;4914217;29;20100;-84
2022/03/23 04:51:20;;;;;;;523.05;45.85;;;;;;;;;;4898044;29;20755;-83
2022/03/23 04:53:46;;;;;;;618.10;45.25;;;;;;;;;;4900099;29;20056;-83
2022/03/23 04:56:13;;;;;;;604.35;44.75;;;;;;;;;;4903223;29;20062;-83
2022/03/23 04:58:41;;;;;;;471.75;40.17;;;;;;;;;;4894684;29;20583;-83
2022/03/23 05:01:07;;;;;;;633.47;48.47;;;;;;;;;;4896890;29;20084;-83
2022/03/23 05:03:34;;;;;;;439.20;40.60;;;;;;;;;;4894990;29;20056;-83
2022/03/23 05:06:00;;;;;;;495.25;42.17;;;;;;;;;;4913489;29;20136;-83
2022/03/23 05:08:27;;;;;;;475.85;39.42;;;;;;;;;;4912626;29;20057;-83
2022/03/23 05:11:00;;;;;;;529.20;46.72;;;;;;;;;;4893389;29;20107;-82
2022/03/23 05:13:26;;;;;;;295.58;35.40;;;;;;;;;;4913787;29;20101;-82
2022/03/23 05:15:53;;;;;;;469.60;41.30;;;;;;;;;;4913815;29;20095;-83
2022/03/23 05:18:20;;;;;;;293.10;34.40;;;;;;;;;;4911626;29;20052;-83
2022/03/23 05:20:47;;;;;;;600.45;43.92;;;;;;;;;;4914771;29;20098;-84
2022/03/23 05:23:15;;;;;;;667.28;46.75;;;;;;;;;;4896793;29;20140;-83
2022/03/23 05:25:42;;;;;;;563.53;43.33;;;;;;;;;;4914106;29;20480;-83
2022/03/23 05:28:09;;;;;;;242.52;29.83;;;;;;;;;;4914105;29;20058;-83
2022/03/23 05:30:36;;;;;;;382.42;32.00;;;;;;;;;;4897149;29;20151;-84
2022/03/23 05:33:03;;;;;;;;;;;;;;;;;;4891916;29;20146;-84
2022/03/23 05:35:29;;;;;;;304.38;32.30;;;;;;;;;;4908976;29;19927;-83
2022/03/23 05:37:56;;;;;;;614.37;46.27;;;;;;;;;;4896576;29;20509;-84
2022/03/23 05:40:23;;;;;;;272.70;33.25;;;;;;;;;;4909541;29;20052;-85
2022/03/23 05:42:50;;;;;;;291.52;32.28;;;;;;;;;;4896829;29;20048;-84
2022/03/23 05:45:21;;;;;;;671.80;47.65;;;;;;;;;;4893211;29;20087;-83
2022/03/23 05:47:52;;;;;;;344.73;34.30;;;;;;;;;;4892032;29;20053;-83
2022/03/23 05:50:20;;;;;;;238.57;33.28;;;;;;;;;;4891136;29;20227;-82
2022/03/23 05:52:46;;;;;;;383.17;33.22;;;;;;;;;;4892218;29;20111;-83
2022/03/23 05:55:13;;;;;;;252.07;28.88;;;;;;;;;;4912133;29;20513;-82
2022/03/23 05:57:39;;;;;;;262.97;31.23;;;;;;;;;;4906261;29;20170;-83
2022/03/23 06:00:07;;;;;;;465.67;38.10;;;;;;;;;;4889797;29;20064;-83
2022/03/23 06:02:43;;;;;;;549.38;42.72;;;;;;;;;;4912725;29;20589;-83
2022/03/23 06:05:10;;;;;;;442.23;37.10;;;;;;;;;;4896964;29;20052;-83
2022/03/23 06:07:43;;;;;;;470.83;38.47;;;;;;;;;;4911984;29;20059;-82
2022/03/23 06:10:17;;;;;;;454.88;40.67;;;;;;;;;;4894988;29;20482;-83
2022/03/23 06:12:43;;;;;;;284.05;30.67;;;;;;;;;;4913626;29;20580;-83
2022/03/23 06:15:11;;;;;;;474.58;35.83;;;;;;;;;;4894155;29;20131;-83
2022/03/23 06:17:39;;;;;;;285.80;28.38;;;;;;;;;;4896386;29;20134;-83
2022/03/23 06:20:07;;;;;;;371.60;30.65;;;;;;;;;;4912097;29;20409;-82
2022/03/23 06:22:33;;;;;;;134.30;18.02;;;;;;;;;;4895232;29;20136;-83
2022/03/23 06:25:00;;;;;;;106.75;18.02;;;;;;;;;;4896895;29;20485;-83
2022/03/23 06:27:27;;;;;;;157.45;20.80;;;;;;;;;;4897401;29;20131;-83
2022/03/23 06:29:53;;;;;;;524.45;34.92;;;;;;;;;;4915831;29;20048;-83
2022/03/23 06:32:22;;;;;;;583.67;36.70;;;;;;;;;;4899081;29;20098;-83
2022/03/23 06:34:48;;;;;;;335.20;28.92;;;;;;;;;;4901990;29;20136;-83
2022/03/23 06:37:14;;;;;;;199.43;22.60;;;;;;;;;;4918151;29;20220;-83
2022/03/23 06:39:41;;;;;;;482.10;36.37;;;;;;;;;;4901296;29;20075;-83
2022/03/23 06:42:08;;;;;;;376.85;29.15;;;;;;;;;;4901617;29;20135;-83
2022/03/23 06:44:34;;;;;;;464.38;33.30;;;;;;;;;;4917227;29;20135;-83
2022/03/23 06:47:02;;;;;;;751.78;43.55;;;;;;;;;;4899322;29;20564;-83
2022/03/23 06:49:28;;;;;;;341.30;29.08;;;;;;;;;;4917530;29;20142;-83
2022/03/23 06:51:55;;;;;;;351.50;32.28;;;;;;;;;;4899901;29;20509;-83
2022/03/23 06:54:22;;;;;;;347.58;28.25;;;;;;;;;;4900706;29;20194;-84
2022/03/23 06:56:51;;;;;;;278.90;26.63;;;;;;;;;;4897285;29;20131;-84
2022/03/23 06:59:18;;;;;;;179.98;21.15;;;;;;;;;;4900573;29;20063;-83
2022/03/23 07:01:46;;;;;;;518.10;30.40;;;;;;;;;;4914738;29;20151;-83
2022/03/23 07:04:13;;;;;;;238.53;26.90;;;;;;;;;;4905215;29;20714;-83
2022/03/23 07:06:41;;;;;;;249.82;19.83;;;;;;;;;;4916221;29;20107;-83
2022/03/23 07:11:53;;;;;;;117.05;21.55;;;;;;;;;;4916521;29;20108;-83
2022/03/23 07:14:21;;;;;;;195.32;22.63;;;;;;;;;;4899113;29;20557;-83
2022/03/23 07:16:47;;;;;;;369.02;28.65;;;;;;;;;;4897359;29;20123;-84
2022/03/23 07:19:14;;;;;;;212.13;24.15;;;;;;;;;;4903814;29;20140;-83
2022/03/23 07:21:41;;;;;;;274.50;26.98;;;;;;;;;;4900301;29;20138;-82
2022/03/23 07:24:07;;;;;;;261.20;26.05;;;;;;;;;;4901976;29;20131;-83
2022/03/23 07:26:34;;;;;;;184.55;23.48;;;;;;;;;;4916235;29;20126;-84
2022/03/23 07:29:01;;;;;;;199.60;27.80;;;;;;;;;;4891977;29;20135;-83
2022/03/23 07:31:28;;;;;;;252.63;25.60;;;;;;;;;;4896486;29;20504;-82
2022/03/23 07:33:54;;;;;;;252.97;25.93;;;;;;;;;;4915960;29;20335;-83
2022/03/23 07:36:24;;;;;;;216.25;23.17;;;;;;;;;;4894222;29;20308;-82
2022/03/23 07:38:51;;;;;;;103.00;20.23;;;;;;;;;;4913956;29;20076;-83
2022/03/23 07:41:17;;;;;;;140.18;20.83;;;;;;;;;;4915209;29;20499;-83
2022/03/23 07:43:51;;;;;;;87.97;20.50;;;;;;;;;;4899894;29;20497;-83
2022/03/23 07:46:18;;;;;;;157.87;19.53;;;;;;;;;;4898733;29;20627;-83
2022/03/23 07:48:44;;;;;;;189.30;24.17;;;;;;;;;;4914398;29;20068;-83
2022/03/23 07:51:14;;;;;;;113.20;22.97;;;;;;;;;;4915759;29;20106;-83
2022/03/23 07:53:43;;;;;;;133.23;20.73;;;;;;;;;;4893972;29;20079;-83
2022/03/23 07:56:09;;;;;;;108.05;22.90;;;;;;;;;;4895042;29;20511;-82
2022/03/23 07:58:42;;;;;;;99.25;20.85;;;;;;;;;;4917826;29;20072;-84
2022/03/23 08:01:10;;;;;;;144.40;23.80;;;;;;;;;;4915127;29;20067;-82
2022/03/23 08:03:37;;;;;;;45.00;19.63;;;;;;;;;;4904200;29;20139;-83
2022/03/23 08:06:19;;;;;;;94.18;20.70;;;;;;;;;;4916406;29;20345;-83
2022/03/23 08:08:45;;;;;;;65.85;19.27;;;;;;;;;;4902071;29;20687;-84
2022/03/23 08:11:13;;;;;;;109.50;21.10;;;;;;;;;;4899261;29;20154;-83
2022/03/23 08:13:39;;;;;;;66.18;20.63;;;;;;;;;;4894276;29;20104;-82
2022/03/23 08:16:06;;;;;;;78.63;19.30;;;;;;;;;;4897760;29;20139;-83
2022/03/23 08:18:33;;;;;;;66.70;14.35;;;;;;;;;;4902609;29;20087;-83
2022/03/23 08:21:00;;;;;;;93.95;20.63;;;;;;;;;;4915026;29;20131;-83
2022/03/23 08:23:29;;;;;;;76.00;19.08;;;;;;;;;;4897846;29;20052;-83
2022/03/23 08:25:56;;;;;;;74.72;21.70;;;;;;;;;;4917286;29;20056;-84
2022/03/23 08:28:23;;;;;;;55.72;19.60;;;;;;;;;;4898915;29;20056;-83
2022/03/23 08:30:51;;;;;;;55.00;18.92;;;;;;;;;;4898178;29;20576;-83
2022/03/23 08:33:19;;;;;;;46.83;18.98;;;;;;;;;;4885566;29;20151;-84
2022/03/23 08:35:46;;;;;;;31.40;18.95;;;;;;;;;;4873717;29;20152;-84
2022/03/23 08:38:12;;;;;;;34.90;18.40;;;;;;;;;;4875804;29;20045;-83
2022/03/23 08:40:39;;;;;;;29.75;17.70;;;;;;;;;;4895142;29;20135;-84
2022/03/23 08:43:12;;;;;;;38.03;18.02;;;;;;;;;;4877590;29;20063;-84
2022/03/23 08:45:38;;;;;;;34.83;17.42;;;;;;;;;;4896574;29;20144;-84
2022/03/23 08:48:05;;;;;;;45.07;18.87;;;;;;;;;;4875685;29;20450;-84
2022/03/23 08:50:40;;;;;;;35.42;17.95;;;;;;;;;;4896024;29;20140;-84
2022/03/23 08:53:07;;;;;;;32.05;16.88;;;;;;;;;;4881036;29;20155;-83
2022/03/23 08:55:33;;;;;;;31.05;18.15;;;;;;;;;;4895333;29;20048;-84
2022/03/23 08:58:06;;;;;;;25.30;17.13;;;;;;;;;;4879472;29;20080;-84
2022/03/23 09:00:33;;;;;;;26.40;17.25;;;;;;;;;;4883444;29;20064;-84
2022/03/23 09:03:00;;;;;;;27.33;15.17;;;;;;;;;;4894290;29;20076;-83
2022/03/23 09:05:28;;;;;;;29.73;15.05;;;;;;;;;;4895316;29;20301;-84
2022/03/23 09:07:54;;;;;;;32.25;15.98;;;;;;;;;;4894847;29;20155;-84
2022/03/23 09:10:21;;;;;;;24.42;15.68;;;;;;;;;;4895041;29;20095;-84
2022/03/23 09:12:48;;;;;;;27.15;15.27;;;;;;;;;;4879570;29;20056;-83
2022/03/23 09:15:16;;;;;;;25.38;16.15;;;;;;;;;;4894752;29;20053;-84
2022/03/23 09:17:49;;;;;;;25.95;15.15;;;;;;;;;;4879307;29;20128;-84
2022/03/23 09:20:16;;;;;;;29.43;17.23;;;;;;;;;;4894921;29;20577;-84
2022/03/23 09:22:44;;;;;;;26.77;16.00;;;;;;;;;;4891481;29;20474;-84
2022/03/23 09:25:14;;;;;;;25.77;16.70;;;;;;;;;;4893573;29;20618;-84
2022/03/23 09:27:43;;;;;;;22.52;16.30;;;;;;;;;;4873679;29;20113;-84
2022/03/23 09:30:11;;;;;;;30.25;17.42;;;;;;;;;;4878172;29;20108;-84
2022/03/23 09:32:41;;;;;;;26.70;17.08;;;;;;;;;;4875265;29;20583;-84
2022/03/23 09:35:07;;;;;;;29.05;18.08;;;;;;;;;;4880734;29;20466;-83
2022/03/23 09:37:50;;;;;;;29.13;18.25;;;;;;;;;;4879161;29;20056;-84
2022/03/23 09:40:24;;;;;;;22.98;15.65;;;;;;;;;;4895707;29;20088;-84
2022/03/23 09:42:58;;;;;;;26.20;17.38;;;;;;;;;;4894899;29;20068;-84
2022/03/23 09:47:55;;;;;;;24.48;16.55;;;;;;;;;;4894981;29;20076;-84
2022/03/23 09:50:21;;;;;;;26.38;16.90;;;;;;;;;;4893125;29;20084;-83
2022/03/23 09:52:50;;;;;;;24.90;16.57;;;;;;;;;;4892126;29;20049;-84
2022/03/23 09:55:16;;;;;;;26.60;18.20;;;;;;;;;;4892934;29;20139;-84
2022/03/23 09:57:42;;;;;;;26.33;17.58;;;;;;;;;;4878127;29;20132;-84
2022/03/23 10:00:09;;;;;;;29.27;18.52;;;;;;;;;;4877070;29;20097;-84
2022/03/23 10:02:57;;;;;;;25.88;17.50;;;;;;;;;;4893794;29;20049;-84
2022/03/23 10:05:27;;;;;;;27.75;17.75;;;;;;;;;;4895163;29;20052;-84
2022/03/23 10:08:13;;;;;;;24.20;16.23;;;;;;;;;;4893823;29;20135;-84
2022/03/23 10:11:24;;;;;;;20.92;13.95;;;;;;;;;;4892117;29;20040;-84
2022/03/23 10:14:09;;;;;;;21.98;14.32;;;;;;;;;;4894828;29;20139;-84
2022/03/23 10:16:45;;;;;;;21.65;15.73;;;;;;;;;;4894398;29;20057;-83
2022/03/23 10:19:13;;;;;;;19.27;13.90;;;;;;;;;;4890485;29;20049;-84
2022/03/23 10:21:39;;;;;;;22.00;14.90;;;;;;;;;;4874257;29;20083;-85
2022/03/23 10:24:12;;;;;;;22.50;15.02;;;;;;;;;;4875571;29;20135;-84
2022/03/23 10:26:41;;;;;;;21.88;14.48;;;;;;;;;;4895165;29;20096;-84
2022/03/23 10:29:22;;;;;;;22.48;15.43;;;;;;;;;;4879016;29;20080;-83
2022/03/23 10:32:06;;;;;;;22.35;15.20;;;;;;;;;;4895702;29;20052;-84
2022/03/23 10:34:52;;;;;;;22.75;15.25;;;;;;;;;;4890971;29;20076;-83
2022/03/23 10:37:24;;;;;;;25.00;14.95;;;;;;;;;;4894284;29;20540;-85
2022/03/23 10:39:51;;;;;;;23.65;14.35;;;;;;;;;;4910831;29;20055;-84
2022/03/23 10:42:18;;;;;;;27.92;14.35;;;;;;;;;;4897066;29;20139;-84
2022/03/23 10:44:45;;;;;;;21.98;15.15;;;;;;;;;;4892740;29;20147;-85
2022/03/23 10:47:21;;;;;;;21.15;14.10;;;;;;;;;;4912159;29;20060;-84
2022/03/23 10:49:48;;;;;;;19.83;14.10;;;;;;;;;;4913403;29;20491;-84
2022/03/23 10:52:16;;;;;;;18.15;13.90;;;;;;;;;;4912161;29;20135;-84
2022/03/23 10:54:59;;;;;;;20.00;13.90;;;;;;;;;;4902352;29;20131;-84
2022/03/23 10:57:42;;;;;;;19.25;13.55;;;;;;;;;;4894614;29;20101;-84
2022/03/23 11:00:13;;;;;;;22.38;13.50;;;;;;;;;;4910673;29;20147;-84
2022/03/23 11:02:48;;;;;;;18.98;13.23;;;;;;;;;;4892020;29;20063;-85
2022/03/23 11:05:34;;;;;;;16.88;12.50;;;;;;;;;;4912662;29;20048;-84
2022/03/23 11:08:11;;;;;;;19.42;13.30;;;;;;;;;;4896413;29;20052;-84
2022/03/23 11:16:10;;;;;;;13.80;10.57;;;;;;;;;;4910922;29;20124;-84
2022/03/23 11:18:44;;;;;;;17.30;11.52;;;;;;;;;;4914950;29;20174;-85
2022/03/23 11:21:11;;;;;;;16.63;11.60;;;;;;;;;;4897115;29;20506;-85
2022/03/23 11:23:38;;;;;;;15.52;11.40;;;;;;;;;;4902060;29;20479;-85
2022/03/23 11:26:11;;;;;;;16.55;11.27;;;;;;;;;;4914158;29;20083;-85
2022/03/23 11:28:42;;;;;;;15.80;11.17;;;;;;;;;;4902999;29;20135;-84
2022/03/23 11:31:09;;;;;;;15.27;11.20;;;;;;;;;;4914712;29;20115;-84
2022/03/23 11:33:51;;;;;;;16.13;11.55;;;;;;;;;;4885337;28;20052;-85
2022/03/23 11:36:19;;;;;;;15.07;11.70;;;;;;;;;;4894066;29;20091;-84
2022/03/23 11:38:48;;;;;;;15.32;11.13;;;;;;;;;;4880635;29;20088;-85
2022/03/23 11:41:15;;;;;;;16.38;11.80;;;;;;;;;;4897665;29;20094;-84
2022/03/23 11:43:42;;;;;;;16.00;11.73;;;;;;;;;;4878274;29;20080;-85
2022/03/23 11:46:22;;;;;;;17.15;11.88;;;;;;;;;;4895278;29;20064;-85
2022/03/23 11:49:01;;;;;;;15.68;10.73;;;;;;;;;;4894593;29;20049;-84
2022/03/23 11:51:39;;;;;;;15.07;11.43;;;;;;;;;;4896160;29;20466;-85
2022/03/23 11:54:26;;;;;;;15.98;12.07;;;;;;;;;;4895478;29;20148;-85
2022/03/23 11:56:59;;;;;;;14.95;11.65;;;;;;;;;;4897153;29;20076;-85
2022/03/23 11:59:26;;;;;;;16.27;12.32;;;;;;;;;;4880316;29;20135;-85
2022/03/23 12:01:54;;;;;;;15.23;11.25;;;;;;;;;;4881427;29;20056;-84
2022/03/23 12:04:21;;;;;;;;;;;;;;;;;;4877981;29;20052;-86
2022/03/23 12:07:06;;;;;;;16.83;11.10;;;;;;;;;;4897322;29;19927;-85
2022/03/23 12:09:40;;;;;;;17.48;12.13;;;;;;;;;;4896893;29;20544;-85
2022/03/23 12:12:13;;;;;;;16.00;11.52;;;;;;;;;;4872917;29;20485;-84
2022/03/23 12:14:40;;;;;;;22.80;12.10;;;;;;;;;;4878039;29;20057;-84
2022/03/23 12:17:10;;;;;;;18.42;12.07;;;;;;;;;;4875745;29;20071;-85
2022/03/23 12:19:53;;;;;;;17.58;12.05;;;;;;;;;;4895514;29;20088;-84
2022/03/23 12:22:33;;;;;;;19.35;12.68;;;;;;;;;;4875664;29;20084;-86
2022/03/23 12:25:00;;;;;;;15.43;11.50;;;;;;;;;;4896172;29;20059;-85
2022/03/23 12:27:46;;;;;;;19.95;11.77;;;;;;;;;;4896704;29;20056;-85
2022/03/23 12:30:14;;;;;;;18.65;11.18;;;;;;;;;;4878991;29;20085;-85
2022/03/23 12:32:41;;;;;;;14.55;10.77;;;;;;;;;;4902228;29;20139;-85
2022/03/23 12:35:08;;;;;;;14.85;10.55;;;;;;;;;;4915144;29;20072;-85
2022/03/23 12:37:36;;;;;;;16.50;11.63;;;;;;;;;;4917100;29;20063;-84
2022/03/23 12:40:08;;;;;;;18.33;11.95;;;;;;;;;;4896493;29;20143;-84
2022/03/23 12:42:40;;;;;;;17.20;11.45;;;;;;;;;;4915583;29;20139;-86
2022/03/23 12:45:07;;;;;;;16.60;11.35;;;;;;;;;;4915753;29;20056;-85
2022/03/23 12:47:35;;;;;;;16.80;11.50;;;;;;;;;;4891205;29;20151;-85
2022/03/23 12:58:46;;;;;;;16.02;10.23;;;;;;;;;;4912901;29;20498;-85
2022/03/23 13:01:14;;;;;;;13.82;10.55;;;;;;;;;;4913127;29;20105;-84
2022/03/23 13:03:47;;;;;;;13.50;10.20;;;;;;;;;;4916077;29;20139;-86
2022/03/23 13:06:16;;;;;;;15.88;11.20;;;;;;;;;;4893769;29;20057;-85
2022/03/23 13:08:48;;;;;;;;;;;;;;;;;;4897140;29;20079;-85
2022/03/23 13:11:18;;;;;;;14.00;10.52;;;;;;;;;;4912505;29;19923;-85
2022/03/23 13:13:49;;;;;;;16.35;10.80;;;;;;;;;;4893016;29;20090;-85
2022/03/23 13:16:18;;;;;;;13.48;9.65;;;;;;;;;;4898541;29;20052;-85
2022/03/23 13:18:45;;;;;;;14.48;10.23;;;;;;;;;;4911393;29;20056;-85
2022/03/23 13:21:16;;;;;;;13.98;9.70;;;;;;;;;;4912944;29;20087;-85
2022/03/23 13:23:44;;;;;;;13.85;9.88;;;;;;;;;;4913891;29;20417;-86
2022/03/23 13:26:15;;;;;;;13.00;9.80;;;;;;;;;;4895284;29;20060;-85
2022/03/23 13:28:43;;;;;;;16.33;9.35;;;;;;;;;;4893600;29;20156;-85
2022/03/23 13:31:11;;;;;;;12.98;9.52;;;;;;;;;;4915222;29;20108;-86
2022/03/23 13:33:48;;;;;;;13.85;9.63;;;;;;;;;;4882548;28;20142;-85
2022/03/23 13:36:16;;;;;;;14.50;9.85;;;;;;;;;;4884354;29;20140;-86
2022/03/23 13:38:46;;;;;;;12.98;9.88;;;;;;;;;;4894385;29;20045;-86
2022/03/23 13:43:59;;;;;;;15.20;9.73;;;;;;;;;;4895751;29;20053;-85
2022/03/23 13:46:26;;;;;;;17.10;9.75;;;;;;;;;;4882572;29;20135;-85
2022/03/23 13:49:00;;;;;;;14.32;9.48;;;;;;;;;;4880925;29;20501;-86
2022/03/23 13:51:34;;;;;;;13.20;9.43;;;;;;;;;;4894832;29;20111;-86
2022/03/23 13:54:01;;;;;;;13.38;9.73;;;;;;;;;;4884170;29;20087;-85
2022/03/23 13:56:30;;;;;;;13.82;9.88;;;;;;;;;;4879321;29;20091;-86
2022/03/23 13:58:57;;;;;;;14.32;9.52;;;;;;;;;;4881257;29;20136;-86
2022/03/23 14:01:25;;;;;;;13.65;9.70;;;;;;;;;;4896305;29;20107;-85
2022/03/23 14:04:03;;;;;;;15.65;10.50;;;;;;;;;;4873030;29;20056;-86
2022/03/23 14:06:31;;;;;;;12.77;9.20;;;;;;;;;;4893463;29;20064;-84
2022/03/23 14:08:58;;;;;;;14.65;9.77;;;;;;;;;;4878230;29;20076;-86
2022/03/23 14:14:28;;;;;;;14.23;9.95;;;;;;;;;;4893289;29;20076;-86
2022/03/23 14:16:59;;;;;;;14.65;9.35;;;;;;;;;;4895159;29;20084;-85
2022/03/23 14:19:30;;;;;;;16.00;10.77;;;;;;;;;;4871546;29;20108;-86
2022/03/23 14:21:58;;;;;;;15.85;11.10;;;;;;;;;;4874910;29;20140;-86
2022/03/23 14:24:29;;;;;;;17.17;11.20;;;;;;;;;;4872147;29;20136;-86
2022/03/23 14:27:12;;;;;;;14.90;10.63;;;;;;;;;;4874242;29;20139;-85
2022/03/23 14:29:57;;;;;;;13.43;9.65;;;;;;;;;;4879835;29;20093;-86
2022/03/23 14:32:47;;;;;;;15.60;11.13;;;;;;;;;;4877745;29;20596;-86
2022/03/23 14:35:18;;;;;;;17.98;11.27;;;;;;;;;;4912989;29;20589;-86
2022/03/23 14:37:49;;;;;;;15.68;11.93;;;;;;;;;;4898755;29;20076;-86
2022/03/23 14:40:20;;;;;;;16.95;11.48;;;;;;;;;;4912139;29;20111;-86
2022/03/23 14:42:48;;;;;;;19.42;12.68;;;;;;;;;;4912877;29;20130;-86
2022/03/23 14:45:33;;;;;;;16.60;11.98;;;;;;;;;;4900666;29;20441;-87
2022/03/23 14:48:21;;;;;;;18.45;11.70;;;;;;;;;;4895811;29;20063;-86
2022/03/23 14:50:49;;;;;;;17.42;11.85;;;;;;;;;;4900993;29;20071;-86
2022/03/23 14:53:20;;;;;;;15.98;11.88;;;;;;;;;;4900464;29;20147;-87
2022/03/23 14:55:47;;;;;;;20.85;13.48;;;;;;;;;;4917258;29;21432;-86
2022/03/23 14:58:23;;;;;;;21.95;14.30;;;;;;;;;;4896745;29;20131;-85
2022/03/23 15:01:00;;;;;;;18.15;11.63;;;;;;;;;;4912361;29;20057;-86
2022/03/23 15:03:30;;;;;;;16.98;11.82;;;;;;;;;;4906150;29;20071;-86